Incident at DEER LAKE NL (CYDF)

Summary

2010-09-03: JZA884 CRJ2 enroute Halifax (CYHZ) to Deer Lake (CYDF) was observed in a missed approach on NDB/DME Runway 07. Pilots advised they had a tail wind and was too high on approach attempted second NDB/DME 07. Aircraft landed 2328Z. METAR CYDF 022300Z 04005KT 10SM SCT008 OVC025 17/16 A2962 SF4SC

Details


CADORS Number 2010A0913
Occurrence Type Incident
Reported By NAV CANADA
Occurred At 2010-09-02 - 23:15
Day or Night?
Fatalities 0
Injuries 0
Aerodrome ID CYDF
Aerodrome Name DEER LAKE NL (CYDF)
Geographic Location Newfoundland and Labrador, Canada, North America, Atlantic Region, Deer Lake (CYDF)
TSB Occurrence Number
TSB Class of Investigation
AOR Number 123869-V1
Reported By NAV CANADA
Categories Undershoot/overshoot
Events



Aircraft Details (1 aircraft)

Type Aeroplane
 Silhouette image of Aeroplane
Canadian Registration
Foreign Registration
Country of Registration Canada
Occurrence Type Incident
Owner JAZZ AIR LP - AIR CANADA JAZZ
Operator JAZZ AIR LP, AS REPRESENTED BY ITS GENERAL PARTNER, JAZZ AIR HOLDING GP INC. (5002) Commercial
Make  Silhouette image of CANADAIR
CANADAIR
Model RJ 200 REGIONAL JET
Year Built
Engine Type Turbo fan
Engine Make
Engine Model
Gear Type Land
Private No
Amateur Built No
Flight Number JZA884
Flight Rule
CARS Subpart
Phase of Flight Approach
Damage Unknown
Fatalities 0
Injuries 0
Events Overshoot/missed approach

Leave a Comment